Worthington, IA (52078)

1:29 AM CDT on May 27, 2015 (GMT -0500)
South Lake | | Change Station
CLOSE
Current Station
Personal Weather Station
Location: Farley, IA
Elevation: 1083 ft
Nearby Weather Stations

Elev 1083 ft 42.44 °N, 91.00 °W | Updated 45 seconds ago

Overcast
Overcast
60.8 °F
Feels Like 60.8 °F
N
2.0
Wind Variable Wind from West
Gusts 0.0 mph

Today
High -- | Low -- °F
--% Chance of Precip.
Yesterday
High -- | Low -- °F
Precip. -- in
5:33 AM 8:30 PM
Waxing Gibbous, 64% visible
Pressure 29.83 in
Visibility 10.0 miles
Clouds Scattered Clouds 1500 ft
Scattered Clouds 2300 ft
Overcast 3000 ft
Dew Point 60 °F
Humidity 96%
Rainfall 0.00 in
Snow Depth Not available.
UV 0 out of 12
Pollen 5.60 out of 12
Air Quality Not available.
Flu Activity Sporadic
METAR KMXO 270615Z AUTO 27006KT 10SM SCT015 SCT023 OVC030 18/18 A2983 RMK AO2

More Conditions Fewer Conditions

Pressure 29.83 in
Visibility 10.0 miles
Clouds Scattered Clouds 1500 ft
Scattered Clouds 2300 ft
Overcast 3000 ft
Dew Point 60 °F
Humidity 96%
Rainfall 0.00 in
Snow Depth Not available.
UV 0 out of 12
Pollen 5.60 out of 12
Air Quality Not available.
Flu Activity Sporadic
METAR KMXO 270615Z AUTO 27006KT 10SM SCT015 SCT023 OVC030 18/18 A2983 RMK AO2

More Conditions Fewer Conditions

10-Day Weather Forecast

Almanac

Astronomy

May. 27, 2015 Rise Set
Actual Time
Civil Twilight
Nautical Twilight
Astronomical Twilight
Moon
Length of Visible Light
Length of Day
Tomorrow will be .
, % of the Moon is Illuminated

Today's Extremes

State Highs State Lows

Community

WunderPhotos

Upload Photos

1,824,619 photos uploaded!

WunderBlogs® & News

Nearby

Air Quality

  Air Quality AQ Index Pollutant
Not available.

Snow Depth

Station Depth Elevation

Earthquake Activity

City Distance Mag. Time & Date
Minimum magnitude displayed is 2.5.

Coastal Water Temperatures

Place Temperature

Stations

Nearby Weather Stations

Station Location Temp. Windchill Dew Point Humidity Wind Precip. Elev Updated Type